Santo, TX (76472)

6:38 PM CST on March 03, 2015 (GMT -0600)
B and A Ranch | Change Station
CLOSE
Current Station
Personal Weather Station
Location: Santo, TX
Elevation: 909 ft
Nearby Weather Stations
Active Advisory: Winter Weather Advisory

Elev 909 ft 32.58 °N, 98.21 °W | Updated 32 seconds ago

Overcast
Overcast
57.0 °F
Feels Like 57.0 °F
N
0.0
Wind Variable Wind from North
Gusts 0.0 mph

Today
High -- | Low -- °F
--% Chance of Precip.
Yesterday
High -- | Low -- °F
Precip. -- in
6:58 AM 6:31 PM
Waxing Gibbous, 97% visible
Pressure 29.80 in
Visibility 3.0 miles
Clouds Scattered Clouds 400 ft
Overcast 2600 ft
Dew Point 55 °F
Humidity 93%
Rainfall 0.00 in
Snow Depth Not available.
UV 0.0 out of 12
Pollen 9.20 out of 12
Air Quality Not available.
Flu Activity Not available.
SPECI KMWL 040022Z AUTO 14008KT 3SM BR SCT004 OVC026 11/11 A2980 RMK AO2 T01110106

More Conditions Fewer Conditions

Pressure 29.80 in
Visibility 3.0 miles
Clouds Scattered Clouds 400 ft
Overcast 2600 ft
Dew Point 55 °F
Humidity 93%
Rainfall 0.00 in
Snow Depth Not available.
UV 0.0 out of 12
Pollen 9.20 out of 12
Air Quality Not available.
Flu Activity Not available.
SPECI KMWL 040022Z AUTO 14008KT 3SM BR SCT004 OVC026 11/11 A2980 RMK AO2 T01110106

More Conditions Fewer Conditions

10-Day Weather Forecast

Almanac

Astronomy

Mar. 03, 2015 Rise Set
Actual Time
Civil Twilight
Nautical Twilight
Astronomical Twilight
Moon
Length of Visible Light
Length of Day
Tomorrow will be .
, % of the Moon is Illuminated

Today's Extremes

State Highs State Lows

Community

WunderPhotos

Upload Photos

1,802,340 photos uploaded!

WunderBlogs® & News

Nearby

Air Quality

  Air Quality AQ Index Pollutant
Not available.

Snow Depth

Station Depth Elevation

Earthquake Activity

City Distance Mag. Time & Date
Minimum magnitude displayed is 2.5.

Coastal Water Temperatures

Place Temperature

Nearby Weather Stations

Winter Weather Advisory
Statement as of 3:08 PM CST on March 03, 2015

... Winter Weather Advisory in effect from 3 PM Wednesday to noon
CST Thursday...

The National Weather Service in Fort Worth has issued a Winter
Weather Advisory which is in effect from 3 PM Wednesday to noon
CST Thursday.

* Timing... from 3 PM Wednesday through noon Thursday.

* Precipitation type... freezing rain... becoming a mix of light
sleet and light snow.

* Accumulation... up to one tenth of an inch of ice... up to one
half inch of sleet and less than one inch of snow.

* Main impact... snow... sleet and ice will create hazardous travel
conditions... especially Wednesday evening through early
Thursday morning.

Precautionary/preparedness actions...

A Winter Weather Advisory means that periods of winter
precipitation may cause travel difficulties. Be prepared for
slippery roads and plan on some travel delays.